createdAt,value
2019-05-07T00:02:02.777Z,3.33
2019-05-07T00:04:33.189Z,3.10
2019-05-07T00:07:02.598Z,3.23
2019-05-07T00:09:32.309Z,3.17
2019-05-07T00:12:04.711Z,3.23
2019-05-07T00:14:32.049Z,3.60
2019-05-07T00:17:02.812Z,3.30
2019-05-07T00:19:32.623Z,3.27
2019-05-07T00:22:02.349Z,3.23
2019-05-07T00:24:33.123Z,3.40
2019-05-07T00:27:02.909Z,3.50
2019-05-07T00:29:32.455Z,3.20
2019-05-07T00:32:02.985Z,3.10
2019-05-07T00:34:37.790Z,3.40
2019-05-07T00:37:22.267Z,3.20
2019-05-07T00:40:10.062Z,3.43
2019-05-07T00:42:57.770Z,3.33
2019-05-07T00:45:48.819Z,3.20
2019-05-07T00:48:17.754Z,3.10
2019-05-07T00:50:48.154Z,3.40
2019-05-07T00:53:16.944Z,3.20
2019-05-07T00:55:45.747Z,3.97
2019-05-07T00:58:14.948Z,3.73
2019-05-07T01:00:43.589Z,3.17
2019-05-07T01:03:12.799Z,4.00
2019-05-07T01:05:43.276Z,3.50
2019-05-07T01:08:13.235Z,4.10
2019-05-07T01:10:42.133Z,3.63
2019-05-07T01:13:12.581Z,3.60
2019-05-07T01:15:43.035Z,3.23
2019-05-07T01:18:12.477Z,3.80
2019-05-07T01:20:42.369Z,3.63
2019-05-07T01:23:13.193Z,3.47
2019-05-07T01:25:42.993Z,3.70
2019-05-07T01:28:13.227Z,4.13
2019-05-07T01:30:43.174Z,3.33
2019-05-07T01:33:26.535Z,3.77
2019-05-07T01:36:22.474Z,3.63
2019-05-07T01:38:52.223Z,3.40
2019-05-07T01:41:23.008Z,3.67
2019-05-07T01:43:52.349Z,3.63
2019-05-07T01:46:24.541Z,3.90
2019-05-07T01:48:54.614Z,3.47
2019-05-07T01:51:22.478Z,4.07
2019-05-07T01:53:52.443Z,3.70
2019-05-07T01:56:22.980Z,3.43
2019-05-07T01:58:52.778Z,3.60
2019-05-07T02:01:22.192Z,3.60
2019-05-07T02:03:57.106Z,3.60
2019-05-07T02:06:34.118Z,3.10
2019-05-07T02:09:28.442Z,3.47
2019-05-07T02:12:15.171Z,3.73
2019-05-07T02:14:44.393Z,3.70
2019-05-07T02:17:13.729Z,3.73
2019-05-07T02:19:42.679Z,3.37
2019-05-07T02:22:13.278Z,3.57
2019-05-07T02:24:43.442Z,3.53
2019-05-07T02:27:12.599Z,3.83
2019-05-07T02:29:43.072Z,4.40
2019-05-07T02:32:13.355Z,3.40
2019-05-07T02:34:44.272Z,4.07
2019-05-07T02:37:15.887Z,4.07
2019-05-07T02:39:58.055Z,4.00
2019-05-07T02:42:26.741Z,4.43
2019-05-07T02:45:13.540Z,4.63
2019-05-07T02:47:43.728Z,4.07
2019-05-07T02:50:22.700Z,4.37
2019-05-07T02:53:03.900Z,3.53
2019-05-07T02:55:52.669Z,4.03
2019-05-07T02:58:23.674Z,4.10
2019-05-07T03:00:53.166Z,3.97
2019-05-07T03:03:24.323Z,5.63
2019-05-07T03:05:53.698Z,5.13
2019-05-07T03:08:26.536Z,5.97
2019-05-07T03:10:53.298Z,4.80
2019-05-07T03:13:23.527Z,5.17
2019-05-07T03:15:54.098Z,5.93
2019-05-07T03:18:23.369Z,6.27
2019-05-07T03:20:59.728Z,5.53
2019-05-07T03:23:34.780Z,4.50
2019-05-07T03:26:13.381Z,5.20
2019-05-07T03:29:09.195Z,5.33
2019-05-07T03:31:57.253Z,5.17
2019-05-07T03:34:46.243Z,4.73
2019-05-07T03:37:13.584Z,5.17
2019-05-07T03:39:43.469Z,4.90
2019-05-07T03:42:13.238Z,5.80
2019-05-07T03:44:53.940Z,5.97
2019-05-07T03:47:27.645Z,5.57
2019-05-07T03:49:56.778Z,6.33
2019-05-07T03:52:25.807Z,6.30
2019-05-07T03:54:54.937Z,5.43
2019-05-07T03:57:24.161Z,5.70
2019-05-07T03:59:53.494Z,5.27
2019-05-07T04:02:23.893Z,5.57
2019-05-07T04:04:53.102Z,6.07
2019-05-07T04:07:23.351Z,6.07
2019-05-07T04:09:53.466Z,5.60
2019-05-07T04:12:23.780Z,5.33
2019-05-07T04:14:53.530Z,4.40
2019-05-07T04:17:26.703Z,5.60
2019-05-07T04:19:53.382Z,5.77
2019-05-07T04:22:26.417Z,5.40
2019-05-07T04:25:24.479Z,5.43
2019-05-07T04:28:03.994Z,5.03
2019-05-07T04:30:33.639Z,4.73
2019-05-07T04:33:04.174Z,6.03
2019-05-07T04:35:53.754Z,5.60
2019-05-07T04:38:23.819Z,4.23
2019-05-07T04:40:53.771Z,5.70
2019-05-07T04:43:23.410Z,5.47
2019-05-07T04:45:53.685Z,5.53
2019-05-07T04:48:23.352Z,4.60
2019-05-07T04:50:54.415Z,4.83
2019-05-07T04:53:23.869Z,5.47
2019-05-07T04:55:53.569Z,5.70
2019-05-07T04:58:23.727Z,5.90
2019-05-07T05:00:53.772Z,5.40
2019-05-07T05:03:25.003Z,5.47
2019-05-07T05:05:54.074Z,5.80
2019-05-07T05:08:23.646Z,5.60
2019-05-07T05:10:53.654Z,5.20
2019-05-07T05:13:23.629Z,5.80
2019-05-07T05:15:52.993Z,6.00
2019-05-07T05:18:22.168Z,5.00
2019-05-07T05:21:22.789Z,5.90
2019-05-07T05:24:02.177Z,5.07
2019-05-07T05:26:32.487Z,5.33
2019-05-07T05:29:02.397Z,6.20
2019-05-07T05:31:33.127Z,5.37
2019-05-07T05:34:02.265Z,6.50
2019-05-07T05:36:32.959Z,5.57
2019-05-07T05:39:02.528Z,6.17
2019-05-07T05:41:33.989Z,5.87
2019-05-07T05:44:13.858Z,6.10
2019-05-07T05:46:42.932Z,6.80
2019-05-07T05:49:12.153Z,5.70
2019-05-07T05:51:46.874Z,6.30
2019-05-07T05:54:33.128Z,6.07
2019-05-07T05:57:36.177Z,5.73
2019-05-07T06:00:32.860Z,6.33
2019-05-07T06:03:23.291Z,6.37
2019-05-07T06:06:09.921Z,7.27
2019-05-07T06:08:47.262Z,6.53
2019-05-07T06:11:35.299Z,7.17
2019-05-07T06:14:33.064Z,6.47
2019-05-07T06:17:22.389Z,7.33
2019-05-07T06:20:22.769Z,7.77
2019-05-07T06:23:09.139Z,7.07
2019-05-07T06:25:39.029Z,7.10
2019-05-07T06:28:08.180Z,8.40
2019-05-07T06:30:36.914Z,7.83
2019-05-07T06:33:05.942Z,8.97
2019-05-07T06:35:34.839Z,7.90
2019-05-07T06:38:04.917Z,7.50
2019-05-07T06:40:52.794Z,7.67
2019-05-07T06:43:35.581Z,8.97
2019-05-07T06:46:04.775Z,8.57
2019-05-07T06:48:42.034Z,8.77
2019-05-07T06:51:04.050Z,8.53
2019-05-07T06:53:33.811Z,7.57
2019-05-07T06:56:03.260Z,8.67
2019-05-07T06:58:47.066Z,8.47
2019-05-07T07:01:42.349Z,8.50
2019-05-07T07:04:22.496Z,8.10
2019-05-07T07:07:26.621Z,9.47
2019-05-07T07:09:54.950Z,8.60
2019-05-07T07:12:26.193Z,8.43
2019-05-07T07:14:57.946Z,8.33
2019-05-07T07:17:25.582Z,7.53
2019-05-07T07:19:54.323Z,8.13
2019-05-07T07:22:23.071Z,7.80
2019-05-07T07:24:53.124Z,7.87
2019-05-07T07:27:22.725Z,7.37
2019-05-07T07:29:57.651Z,7.57
2019-05-07T07:32:32.787Z,7.57
2019-05-07T07:35:02.450Z,7.63
2019-05-07T07:37:38.576Z,7.30
2019-05-07T07:40:22.460Z,7.37
2019-05-07T07:42:52.031Z,7.50
2019-05-07T07:45:23.048Z,7.40
2019-05-07T07:47:53.083Z,7.23
2019-05-07T07:50:22.503Z,7.00
2019-05-07T07:52:53.015Z,7.00
2019-05-07T07:55:28.030Z,7.43
2019-05-07T07:58:04.551Z,7.07
2019-05-07T08:00:52.613Z,6.27
2019-05-07T08:03:22.563Z,7.13
2019-05-07T08:05:51.884Z,5.90
2019-05-07T08:08:21.986Z,5.47
2019-05-07T08:10:52.000Z,6.13
2019-05-07T08:13:22.905Z,6.30
2019-05-07T08:15:51.949Z,6.13
2019-05-07T08:18:22.228Z,6.00
2019-05-07T08:20:51.960Z,6.00
2019-05-07T08:23:22.661Z,6.27
2019-05-07T08:25:52.520Z,6.17
2019-05-07T08:28:23.147Z,7.07
2019-05-07T08:31:02.959Z,6.70
2019-05-07T08:33:35.810Z,6.30
2019-05-07T08:36:15.915Z,6.37
2019-05-07T08:38:53.137Z,6.83
2019-05-07T08:41:23.391Z,5.97
2019-05-07T08:44:08.286Z,5.30
2019-05-07T08:47:03.809Z,5.67
2019-05-07T08:49:38.875Z,5.93
2019-05-07T08:52:03.819Z,5.63
2019-05-07T08:54:33.203Z,5.30
2019-05-07T08:57:02.671Z,6.10
2019-05-07T08:59:32.555Z,5.87
2019-05-07T09:02:02.948Z,5.67
2019-05-07T09:04:33.023Z,6.57
2019-05-07T09:07:02.743Z,6.00
2019-05-07T09:09:32.758Z,6.10
2019-05-07T09:12:03.078Z,6.30
2019-05-07T09:14:32.313Z,6.03
2019-05-07T09:17:02.453Z,5.97
2019-05-07T09:19:32.190Z,6.73
2019-05-07T09:22:02.126Z,5.70
2019-05-07T09:24:33.290Z,5.50
2019-05-07T09:27:08.223Z,5.57
2019-05-07T09:29:56.058Z,5.77
2019-05-07T09:32:32.818Z,5.57
2019-05-07T09:35:02.456Z,5.33
2019-05-07T09:37:32.567Z,4.53
2019-05-07T09:40:02.789Z,4.80
2019-05-07T09:42:33.312Z,4.67
2019-05-07T09:45:02.451Z,4.23
2019-05-07T09:47:32.579Z,4.37
2019-05-07T09:50:07.087Z,4.07
2019-05-07T09:52:32.451Z,4.47
2019-05-07T09:55:11.044Z,4.40
2019-05-07T09:57:34.521Z,4.03
2019-05-07T10:00:02.405Z,4.00
2019-05-07T10:02:32.076Z,3.63
2019-05-07T10:05:02.350Z,3.83
2019-05-07T10:07:32.457Z,3.87
2019-05-07T10:10:03.190Z,3.47
2019-05-07T10:12:41.977Z,3.80
2019-05-07T10:15:12.304Z,4.00
2019-05-07T10:17:51.325Z,3.30
2019-05-07T10:20:22.714Z,4.10
2019-05-07T10:22:52.078Z,3.17
2019-05-07T10:25:22.424Z,3.77
2019-05-07T10:27:53.225Z,3.50
2019-05-07T10:30:22.435Z,3.00
2019-05-07T10:32:52.726Z,3.43
2019-05-07T10:35:22.905Z,2.90
2019-05-07T10:37:52.805Z,3.37
2019-05-07T10:40:22.534Z,3.63
2019-05-07T10:42:51.895Z,3.67
2019-05-07T10:45:32.320Z,3.30
2019-05-07T10:48:14.890Z,3.33
2019-05-07T10:50:45.974Z,3.40
2019-05-07T10:53:14.938Z,3.10
2019-05-07T10:55:45.547Z,2.70
2019-05-07T10:58:14.106Z,3.20
2019-05-07T11:00:43.122Z,3.33
2019-05-07T11:03:12.749Z,2.90
2019-05-07T11:05:41.984Z,3.40
2019-05-07T11:08:10.987Z,2.53
2019-05-07T11:10:41.740Z,3.47
2019-05-07T11:13:10.089Z,2.87
2019-05-07T11:15:39.383Z,2.97
2019-05-07T11:18:23.066Z,3.10
2019-05-07T11:20:53.473Z,3.17
2019-05-07T11:23:22.560Z,3.20
2019-05-07T11:25:52.692Z,3.17
2019-05-07T11:28:22.747Z,2.93
2019-05-07T11:30:51.619Z,3.00
2019-05-07T11:33:22.049Z,2.90
2019-05-07T11:35:52.654Z,3.90
2019-05-07T11:38:24.700Z,3.17
2019-05-07T11:40:51.874Z,3.20
2019-05-07T11:43:33.371Z,3.43
2019-05-07T11:46:30.027Z,2.60
2019-05-07T11:49:04.031Z,2.63
2019-05-07T11:51:54.923Z,2.47
2019-05-07T11:54:23.579Z,2.30
2019-05-07T11:56:55.383Z,2.50
2019-05-07T11:59:22.819Z,2.90
2019-05-07T12:01:56.230Z,2.40
2019-05-07T12:04:27.615Z,2.33
2019-05-07T12:06:55.410Z,2.60
2019-05-07T12:09:24.426Z,2.67
2019-05-07T12:11:53.078Z,2.10
2019-05-07T12:14:31.367Z,2.37
2019-05-07T12:16:52.511Z,2.60
2019-05-07T12:19:22.661Z,2.20
2019-05-07T12:21:52.644Z,2.13
2019-05-07T12:24:22.338Z,2.50
2019-05-07T12:26:52.235Z,2.27
2019-05-07T12:29:22.092Z,2.50
2019-05-07T12:32:18.672Z,2.33
2019-05-07T12:34:55.544Z,2.40
2019-05-07T12:37:24.291Z,2.33
2019-05-07T12:39:53.111Z,2.20
2019-05-07T12:42:22.347Z,2.13
2019-05-07T12:44:51.820Z,2.20
2019-05-07T12:47:22.462Z,2.20
2019-05-07T12:49:51.376Z,2.83
2019-05-07T12:52:26.950Z,4.73
2019-05-07T12:55:06.820Z,2.50
2019-05-07T12:57:35.566Z,1.93
2019-05-07T13:00:22.962Z,1.73
2019-05-07T13:03:09.792Z,1.80
2019-05-07T13:05:38.647Z,1.80
2019-05-07T13:08:07.570Z,1.57
2019-05-07T13:10:36.592Z,1.90
2019-05-07T13:13:05.621Z,1.70
2019-05-07T13:15:34.419Z,2.13
2019-05-07T13:18:03.206Z,2.10
2019-05-07T13:20:32.131Z,1.70
2019-05-07T13:23:00.871Z,1.60
2019-05-07T13:25:29.806Z,1.67
2019-05-07T13:27:58.530Z,1.67
2019-05-07T13:30:27.744Z,2.03
2019-05-07T13:32:57.518Z,1.70
2019-05-07T13:35:26.949Z,1.67
2019-05-07T13:38:14.582Z,1.47
2019-05-07T13:41:02.163Z,1.57
2019-05-07T13:43:35.952Z,1.20
2019-05-07T13:46:12.066Z,0.87
2019-05-07T13:48:44.078Z,1.10
2019-05-07T13:51:12.499Z,1.20
2019-05-07T13:53:42.802Z,0.90
2019-05-07T13:56:13.287Z,1.00
2019-05-07T13:58:42.824Z,1.10
2019-05-07T14:01:36.906Z,1.43
2019-05-07T14:04:05.647Z,1.20
2019-05-07T14:06:42.698Z,1.10
2019-05-07T14:09:16.254Z,1.23
2019-05-07T14:11:45.313Z,1.10
2019-05-07T14:14:14.064Z,1.13
2019-05-07T14:16:45.089Z,1.40
2019-05-07T14:19:13.676Z,1.03
2019-05-07T14:21:42.711Z,1.30
2019-05-07T14:24:14.600Z,1.20
2019-05-07T14:26:42.234Z,1.17
2019-05-07T14:29:11.193Z,0.83
2019-05-07T14:31:39.822Z,1.50
2019-05-07T14:34:17.783Z,1.20
2019-05-07T14:37:04.694Z,1.23
2019-05-07T14:39:33.450Z,1.43
2019-05-07T14:42:04.537Z,1.20
2019-05-07T14:44:49.763Z,1.40
2019-05-07T14:47:22.066Z,1.33
2019-05-07T14:49:52.683Z,1.27
2019-05-07T14:52:30.308Z,1.50
2019-05-07T14:54:51.227Z,1.40
2019-05-07T14:57:21.971Z,1.00
2019-05-07T14:59:52.383Z,1.70
2019-05-07T15:02:23.464Z,1.37
2019-05-07T15:04:52.533Z,1.20
2019-05-07T15:07:22.647Z,1.17
2019-05-07T15:09:51.882Z,1.30
2019-05-07T15:12:23.070Z,1.23
2019-05-07T15:14:52.800Z,1.20
2019-05-07T15:17:37.358Z,1.10
2019-05-07T15:20:06.853Z,1.30
2019-05-07T15:22:49.603Z,1.30
2019-05-07T15:25:15.733Z,1.00
2019-05-07T15:27:46.080Z,0.97
2019-05-07T15:30:15.334Z,1.00
2019-05-07T15:32:44.603Z,0.70
2019-05-07T15:35:13.643Z,0.90
2019-05-07T15:37:42.835Z,1.10
2019-05-07T15:40:11.823Z,0.90
2019-05-07T15:42:42.166Z,0.90
2019-05-07T15:45:12.516Z,0.80
2019-05-07T15:47:45.381Z,1.27
2019-05-07T15:50:14.411Z,0.90
2019-05-07T15:52:58.250Z,0.93
2019-05-07T15:55:22.564Z,0.80
2019-05-07T15:57:52.269Z,1.00
2019-05-07T16:00:23.412Z,1.00
2019-05-07T16:02:56.559Z,1.23
2019-05-07T16:05:25.217Z,1.17
2019-05-07T16:07:54.185Z,0.97
2019-05-07T16:10:23.425Z,0.90
2019-05-07T16:12:53.080Z,1.20
2019-05-07T16:15:22.475Z,1.10
2019-05-07T16:17:56.746Z,0.93
2019-05-07T16:20:26.053Z,1.00
2019-05-07T16:23:11.367Z,1.57
2019-05-07T16:25:28.720Z,1.27
2019-05-07T16:27:57.530Z,1.10
2019-05-07T16:30:26.701Z,1.20
2019-05-07T16:32:56.043Z,1.20
2019-05-07T16:35:25.146Z,1.10
2019-05-07T16:37:53.802Z,1.30
2019-05-07T16:40:23.062Z,1.27
2019-05-07T16:42:52.525Z,1.23
2019-05-07T16:45:21.581Z,1.13
2019-05-07T16:47:52.147Z,1.27
2019-05-07T16:50:22.359Z,1.20
2019-05-07T16:52:52.410Z,1.00
2019-05-07T16:55:23.288Z,1.37
2019-05-07T16:58:06.163Z,1.10
2019-05-07T17:00:38.988Z,1.10
2019-05-07T17:03:11.710Z,1.10
2019-05-07T17:05:42.787Z,1.00
2019-05-07T17:08:42.898Z,1.13
2019-05-07T17:11:12.099Z,1.10
2019-05-07T17:13:42.428Z,1.10
2019-05-07T17:16:12.360Z,1.23
2019-05-07T17:18:41.179Z,1.30
2019-05-07T17:21:12.203Z,3.40
2019-05-07T17:23:44.492Z,2.80
2019-05-07T17:26:11.729Z,2.70
2019-05-07T17:28:42.547Z,2.40
2019-05-07T17:31:12.374Z,2.00
2019-05-07T17:33:42.468Z,1.30
2019-05-07T17:36:12.209Z,1.87
2019-05-07T17:38:42.821Z,2.23
2019-05-07T17:41:19.936Z,1.63
2019-05-07T17:43:42.363Z,1.93
2019-05-07T17:46:12.249Z,1.80
2019-05-07T17:48:42.840Z,2.10
2019-05-07T17:51:33.558Z,2.10
2019-05-07T17:54:02.257Z,1.63
2019-05-07T17:56:32.014Z,2.10
2019-05-07T17:59:02.770Z,3.43
2019-05-07T18:01:56.542Z,2.33
2019-05-07T18:04:25.458Z,1.70
2019-05-07T18:06:54.474Z,1.77
2019-05-07T18:09:23.505Z,1.80
2019-05-07T18:11:52.460Z,1.43
2019-05-07T18:14:22.844Z,1.80
2019-05-07T18:17:16.742Z,2.17
2019-05-07T18:19:48.288Z,1.90
2019-05-07T18:22:17.358Z,1.80
2019-05-07T18:24:46.553Z,1.60
2019-05-07T18:27:24.217Z,1.83
2019-05-07T18:29:53.038Z,1.90
2019-05-07T18:32:22.056Z,4.77
2019-05-07T18:34:51.962Z,2.20
2019-05-07T18:37:22.920Z,2.27
2019-05-07T18:39:52.201Z,2.47
2019-05-07T18:42:22.224Z,2.13
2019-05-07T18:44:52.483Z,1.83
2019-05-07T18:47:22.375Z,1.80
2019-05-07T18:49:51.882Z,2.00
2019-05-07T18:52:22.811Z,1.90
2019-05-07T18:54:52.068Z,1.73
2019-05-07T18:57:22.201Z,1.90
2019-05-07T18:59:53.048Z,1.70
2019-05-07T19:02:22.582Z,1.50
2019-05-07T19:04:51.933Z,2.03
2019-05-07T19:07:23.093Z,1.90
2019-05-07T19:09:51.695Z,1.73
2019-05-07T19:12:23.270Z,1.70
2019-05-07T19:14:51.984Z,1.70
2019-05-07T19:17:21.864Z,2.00
2019-05-07T19:19:52.529Z,1.87
2019-05-07T19:22:22.224Z,1.97
2019-05-07T19:24:52.719Z,1.90
2019-05-07T19:27:22.101Z,1.50
2019-05-07T19:29:50.880Z,2.17
2019-05-07T19:32:20.067Z,1.40
2019-05-07T19:34:49.101Z,2.00
2019-05-07T19:37:17.746Z,1.93
2019-05-07T19:39:46.766Z,1.80
2019-05-07T19:42:15.449Z,1.80
2019-05-07T19:44:44.050Z,1.97
2019-05-07T19:47:12.827Z,2.20
2019-05-07T19:49:41.881Z,2.03
2019-05-07T19:52:12.445Z,2.47
2019-05-07T19:54:44.344Z,2.67
2019-05-07T19:57:13.870Z,3.30
2019-05-07T19:59:42.953Z,2.50
2019-05-07T20:02:13.854Z,2.37
2019-05-07T20:04:42.776Z,2.00
2019-05-07T20:07:12.213Z,2.60
2019-05-07T20:09:42.862Z,2.30
2019-05-07T20:12:11.541Z,2.50
2019-05-07T20:14:42.155Z,3.17
2019-05-07T20:17:12.291Z,2.50
2019-05-07T20:19:41.897Z,2.47
2019-05-07T20:22:12.775Z,2.97
2019-05-07T20:24:41.859Z,2.60
2019-05-07T20:27:12.466Z,2.80
2019-05-07T20:29:42.746Z,2.57
2019-05-07T20:32:11.981Z,2.30
2019-05-07T20:34:42.297Z,2.40
2019-05-07T20:37:12.890Z,2.03
2019-05-07T20:39:42.728Z,2.47
2019-05-07T20:42:12.463Z,2.27
2019-05-07T20:44:42.642Z,2.30
2019-05-07T20:47:12.681Z,2.23
2019-05-07T20:49:42.787Z,2.30
2019-05-07T20:52:11.474Z,2.57
2019-05-07T20:55:12.852Z,2.77
2019-05-07T20:57:43.259Z,2.20
2019-05-07T21:00:20.004Z,2.57
2019-05-07T21:02:52.503Z,2.50
2019-05-07T21:05:22.768Z,2.77
2019-05-07T21:07:52.496Z,2.20
2019-05-07T21:10:22.167Z,2.40
2019-05-07T21:12:51.771Z,2.63
2019-05-07T21:15:22.654Z,2.60
2019-05-07T21:17:52.637Z,2.40
2019-05-07T21:20:22.850Z,2.93
2019-05-07T21:22:52.008Z,2.33
2019-05-07T21:25:22.703Z,2.70
2019-05-07T21:27:53.144Z,1.80
2019-05-07T21:30:22.514Z,2.37
2019-05-07T21:32:51.768Z,1.70
2019-05-07T21:35:22.370Z,1.63
2019-05-07T21:37:52.377Z,1.93
2019-05-07T21:40:22.437Z,1.50
2019-05-07T21:42:52.050Z,1.47
2019-05-07T21:45:23.603Z,2.00
2019-05-07T21:47:52.051Z,1.60
2019-05-07T21:50:22.137Z,1.13
2019-05-07T21:52:56.108Z,1.50
2019-05-07T21:55:34.126Z,1.50
2019-05-07T21:58:25.095Z,1.73
2019-05-07T22:01:13.269Z,1.70
2019-05-07T22:03:45.642Z,1.50
2019-05-07T22:06:14.571Z,1.63
2019-05-07T22:08:43.636Z,1.10
2019-05-07T22:11:12.596Z,1.23
2019-05-07T22:13:43.464Z,1.70
2019-05-07T22:16:12.978Z,1.27
2019-05-07T22:18:42.668Z,1.53
2019-05-07T22:21:12.401Z,1.40
2019-05-07T22:23:42.893Z,1.60
2019-05-07T22:26:20.245Z,1.70
2019-05-07T22:28:42.775Z,1.43
2019-05-07T22:31:30.623Z,1.80
2019-05-07T22:34:27.503Z,1.60
2019-05-07T22:36:56.634Z,1.50
2019-05-07T22:39:25.854Z,1.50
2019-05-07T22:41:54.595Z,1.37
2019-05-07T22:44:26.094Z,1.30
2019-05-07T22:46:54.126Z,1.30
2019-05-07T22:49:23.092Z,1.60
2019-05-07T22:51:52.570Z,1.50
2019-05-07T22:54:22.751Z,1.57
2019-05-07T22:57:03.146Z,1.90
2019-05-07T22:59:32.796Z,1.20
2019-05-07T23:02:03.139Z,1.87
2019-05-07T23:04:32.644Z,1.70
2019-05-07T23:07:02.316Z,1.50
2019-05-07T23:09:31.351Z,1.43
2019-05-07T23:12:02.135Z,1.70
2019-05-07T23:14:30.375Z,1.77
2019-05-07T23:16:59.295Z,1.60
2019-05-07T23:19:28.034Z,1.97
2019-05-07T23:21:57.249Z,2.03
2019-05-07T23:24:25.894Z,1.90
2019-05-07T23:26:54.552Z,1.87
2019-05-07T23:29:23.186Z,1.80
2019-05-07T23:31:52.833Z,1.77
2019-05-07T23:34:22.699Z,2.17
2019-05-07T23:36:53.455Z,2.00
2019-05-07T23:39:24.392Z,1.93
2019-05-07T23:42:02.264Z,2.00
2019-05-07T23:44:31.602Z,2.27
2019-05-07T23:47:02.611Z,1.97
2019-05-07T23:49:32.256Z,2.30
2019-05-07T23:52:02.429Z,2.10
2019-05-07T23:54:32.018Z,2.50
2019-05-07T23:57:06.993Z,2.50
2019-05-07T23:59:32.892Z,3.27
